Terminal Aerodrome Forecast
Issued by NWS Green Bay, WI

Home | Current Version | Previous Version | Text Only | Print | Product List | Glossary Off
Versions: 1 2 3 4 5 6 7 8 9 10 11 12 13 14 15 16 17

000
FTUS43 KGRB 281100
TAFGRB
TAF
KGRB 281134Z 2812/2912 27012G21KT P6SM SCT020 BKN040
      TEMPO 2812/2815 BKN020
     FM281500 25016G26KT P6SM SCT040 BKN060
     FM290000 26013G20KT P6SM OVC035=

USA.gov is the U.S. government's official web portal to all federal, state and local government web resources and services.